createdAt,value
2022-12-01T00:00:03.566Z,4.30
2022-12-01T00:04:49.293Z,4.30
2022-12-01T00:09:50.416Z,4.30
2022-12-01T00:14:33.977Z,4.30
2022-12-01T00:19:19.398Z,4.20
2022-12-01T00:24:02.862Z,4.20
2022-12-01T00:28:49.509Z,4.20
2022-12-01T00:33:32.857Z,4.20
2022-12-01T00:38:18.308Z,4.20
2022-12-01T00:43:02.389Z,4.20
2022-12-01T00:47:46.300Z,4.20
2022-12-01T00:52:29.788Z,4.30
2022-12-01T00:57:15.469Z,4.30
2022-12-01T01:01:58.971Z,4.30
2022-12-01T01:06:43.501Z,4.30
2022-12-01T01:11:27.725Z,4.30
2022-12-01T01:16:16.421Z,4.20
2022-12-01T01:21:01.767Z,4.30
2022-12-01T01:25:45.175Z,4.30
2022-12-01T01:30:29.016Z,4.30
2022-12-01T01:35:13.857Z,4.20
2022-12-01T01:39:57.268Z,4.20
2022-12-01T01:44:53.164Z,4.30
2022-12-01T01:49:37.062Z,4.20
2022-12-01T01:54:25.110Z,4.20
2022-12-01T01:59:08.767Z,4.20
2022-12-01T02:03:55.443Z,4.20
2022-12-01T02:08:39.608Z,4.20
2022-12-01T02:13:32.625Z,4.20
2022-12-01T02:18:25.545Z,4.20
2022-12-01T02:23:45.430Z,4.20
2022-12-01T02:28:49.632Z,4.20
2022-12-01T02:33:40.920Z,4.30
2022-12-01T02:38:29.944Z,4.20
2022-12-01T02:43:21.458Z,4.20
2022-12-01T02:48:09.585Z,4.20
2022-12-01T02:52:55.745Z,4.20
2022-12-01T02:57:39.297Z,4.20
2022-12-01T03:02:33.407Z,4.20
2022-12-01T03:07:33.416Z,4.20
2022-12-01T03:12:27.839Z,4.20
2022-12-01T03:17:16.688Z,4.20
2022-12-01T03:22:06.808Z,4.20
2022-12-01T03:26:57.051Z,4.20
2022-12-01T03:31:45.811Z,4.20
2022-12-01T03:36:32.983Z,4.20
2022-12-01T03:41:20.427Z,4.20
2022-12-01T03:46:10.728Z,4.20
2022-12-01T03:51:04.055Z,4.20
2022-12-01T03:55:53.446Z,4.20
2022-12-01T04:00:37.956Z,4.20
2022-12-01T04:05:25.297Z,4.20
2022-12-01T04:10:11.056Z,4.10
2022-12-01T04:14:54.472Z,4.10
2022-12-01T04:19:37.854Z,4.10
2022-12-01T04:24:21.292Z,4.10
2022-12-01T04:29:10.175Z,4.00
2022-12-01T04:33:55.095Z,4.10
2022-12-01T04:38:38.662Z,4.00
2022-12-01T04:43:22.564Z,4.00
2022-12-01T04:48:07.779Z,3.90
2022-12-01T04:52:51.362Z,3.90
2022-12-01T04:57:34.789Z,3.90
2022-12-01T05:02:18.222Z,3.90
2022-12-01T05:07:03.076Z,3.90
2022-12-01T05:11:46.717Z,3.90
2022-12-01T05:16:32.563Z,3.90
2022-12-01T05:21:16.081Z,3.90
2022-12-01T05:26:01.111Z,3.90
2022-12-01T05:30:44.903Z,3.90
2022-12-01T05:35:28.316Z,3.90
2022-12-01T05:40:13.342Z,3.90
2022-12-01T05:44:58.312Z,3.80
2022-12-01T05:49:41.649Z,3.80
2022-12-01T05:54:25.081Z,3.80
2022-12-01T05:59:08.483Z,3.80
2022-12-01T06:03:54.166Z,3.80
2022-12-01T06:08:37.675Z,3.80
2022-12-01T06:13:21.352Z,3.80
2022-12-01T06:18:04.878Z,3.80
2022-12-01T06:22:50.151Z,3.80
2022-12-01T06:27:33.631Z,3.80
2022-12-01T06:32:17.215Z,3.80
2022-12-01T06:37:00.976Z,3.80
2022-12-01T06:41:45.884Z,3.70
2022-12-01T06:46:30.445Z,3.70
2022-12-01T06:51:14.004Z,3.70
2022-12-01T06:56:01.333Z,3.70
2022-12-01T07:00:51.766Z,3.70
2022-12-01T07:05:35.627Z,3.70
2022-12-01T07:10:19.316Z,3.80
2022-12-01T07:15:03.039Z,3.80
2022-12-01T07:19:48.343Z,3.90
2022-12-01T07:24:32.375Z,3.90
2022-12-01T07:29:16.275Z,3.90
2022-12-01T07:33:59.713Z,3.90
2022-12-01T07:38:44.744Z,3.90
2022-12-01T07:43:28.225Z,4.10
2022-12-01T07:48:12.161Z,4.10
2022-12-01T07:52:55.695Z,4.10
2022-12-01T07:57:40.744Z,4.10
2022-12-01T08:02:24.321Z,4.10
2022-12-01T08:07:08.410Z,4.10
2022-12-01T08:11:51.829Z,4.20
2022-12-01T08:16:36.657Z,4.20
2022-12-01T08:21:23.141Z,4.30
2022-12-01T08:26:08.444Z,4.30
2022-12-01T08:30:52.215Z,4.30
2022-12-01T08:35:38.721Z,4.40
2022-12-01T08:40:22.371Z,4.50
2022-12-01T08:45:06.268Z,4.50
2022-12-01T08:49:49.962Z,4.50
2022-12-01T08:54:35.146Z,4.60
2022-12-01T08:59:19.083Z,4.70
2022-12-01T09:04:08.838Z,4.80
2022-12-01T09:08:52.527Z,4.80
2022-12-01T09:13:39.794Z,4.90
2022-12-01T09:18:23.376Z,5.00
2022-12-01T09:23:06.891Z,5.00
2022-12-01T09:27:50.275Z,5.10
2022-12-01T09:32:35.065Z,5.10
2022-12-01T09:37:18.505Z,5.10
2022-12-01T09:42:09.196Z,5.10
2022-12-01T09:46:57.316Z,5.20
2022-12-01T09:51:42.183Z,5.20
2022-12-01T09:56:29.422Z,5.20
2022-12-01T10:01:17.192Z,5.30
2022-12-01T10:11:18.012Z,5.50
2022-12-01T10:16:08.551Z,5.50
2022-12-01T10:20:58.770Z,5.40
2022-12-01T10:25:53.274Z,5.30
2022-12-01T10:30:49.814Z,5.20
2022-12-01T10:35:37.274Z,5.30
2022-12-01T10:40:21.158Z,5.30
2022-12-01T10:45:11.350Z,5.30
2022-12-01T10:49:56.743Z,5.20
2022-12-01T10:54:41.787Z,5.30
2022-12-01T10:59:34.345Z,5.30
2022-12-01T11:04:30.389Z,5.30
2022-12-01T11:09:25.955Z,5.30
2022-12-01T11:14:21.521Z,5.30
2022-12-01T11:19:11.433Z,5.30
2022-12-01T11:23:56.690Z,5.30
2022-12-01T11:28:52.092Z,5.30
2022-12-01T11:33:45.996Z,5.30
2022-12-01T11:38:37.663Z,5.40
2022-12-01T11:43:26.688Z,5.50
2022-12-01T11:48:26.201Z,5.50
2022-12-01T11:53:28.069Z,5.50
2022-12-01T11:58:11.693Z,5.60
2022-12-01T12:03:20.666Z,5.60
2022-12-01T12:08:14.355Z,5.40
2022-12-01T12:13:14.169Z,5.40
2022-12-01T12:18:20.005Z,5.30
2022-12-01T12:23:29.030Z,5.30
2022-12-01T12:28:29.494Z,5.30
2022-12-01T12:33:38.948Z,5.30
2022-12-01T12:38:41.979Z,5.10
2022-12-01T12:43:33.741Z,5.20
2022-12-01T12:48:32.689Z,5.30
2022-12-01T12:53:22.394Z,5.30
2022-12-01T12:58:14.635Z,5.20
2022-12-01T13:03:04.988Z,5.20
2022-12-01T13:07:55.049Z,5.30
2022-12-01T13:12:42.096Z,5.30
2022-12-01T13:17:32.511Z,5.30
2022-12-01T13:22:19.256Z,5.30
2022-12-01T13:27:06.381Z,5.20
2022-12-01T13:31:52.570Z,5.20
2022-12-01T13:36:52.738Z,5.20
2022-12-01T13:41:39.281Z,5.20
2022-12-01T13:46:24.495Z,5.20
2022-12-01T13:51:08.608Z,5.10
2022-12-01T13:56:01.822Z,5.10
2022-12-01T14:00:46.117Z,5.00
2022-12-01T14:05:47.022Z,5.00
2022-12-01T14:10:32.808Z,5.00
2022-12-01T14:15:42.895Z,4.90
2022-12-01T14:20:28.257Z,4.90
2022-12-01T14:25:27.402Z,4.90
2022-12-01T14:30:46.984Z,4.80
2022-12-01T14:35:33.826Z,4.80
2022-12-01T14:40:22.765Z,4.80
2022-12-01T14:45:09.209Z,4.80
2022-12-01T14:49:57.383Z,4.80
2022-12-01T14:54:46.800Z,4.80
2022-12-01T14:59:30.639Z,4.80
2022-12-01T15:04:14.143Z,4.80
2022-12-01T15:14:30.010Z,4.70
2022-12-01T15:19:24.907Z,4.60
2022-12-01T15:24:23.114Z,4.60
2022-12-01T15:29:15.648Z,4.60
2022-12-01T15:34:00.876Z,4.60
2022-12-01T15:38:47.733Z,4.60
2022-12-01T15:43:37.757Z,4.60
2022-12-01T15:48:31.573Z,4.60
2022-12-01T15:53:25.537Z,4.50
2022-12-01T15:58:11.173Z,4.50
2022-12-01T16:02:57.796Z,4.50
2022-12-01T16:08:12.024Z,4.50
2022-12-01T16:12:47.085Z,4.50
2022-12-01T16:17:42.121Z,4.50
2022-12-01T16:22:26.995Z,4.50
2022-12-01T16:27:22.166Z,4.50
2022-12-01T16:32:21.305Z,4.50
2022-12-01T16:37:06.178Z,4.50
2022-12-01T16:41:51.519Z,4.50
2022-12-01T16:46:36.109Z,4.50
2022-12-01T16:51:30.014Z,4.50
2022-12-01T16:56:26.914Z,4.50
2022-12-01T17:01:13.198Z,4.50
2022-12-01T17:06:01.659Z,4.50
2022-12-01T17:10:49.919Z,4.50
2022-12-01T17:15:34.429Z,4.50
2022-12-01T17:20:19.083Z,4.50
2022-12-01T17:25:05.634Z,4.50
2022-12-01T17:29:53.455Z,4.50
2022-12-01T17:34:37.786Z,4.50
2022-12-01T17:39:23.530Z,4.50
2022-12-01T17:44:07.509Z,4.50
2022-12-01T17:48:53.692Z,4.40
2022-12-01T17:53:41.269Z,4.40
2022-12-01T17:58:25.832Z,4.40
2022-12-01T18:03:10.186Z,4.40
2022-12-01T18:07:56.645Z,4.30
2022-12-01T18:12:42.882Z,4.40
2022-12-01T18:17:27.888Z,4.40
2022-12-01T18:22:12.397Z,4.40
2022-12-01T18:27:00.070Z,4.40
2022-12-01T18:31:45.219Z,4.40
2022-12-01T18:36:29.997Z,4.40
2022-12-01T18:41:15.291Z,4.40
2022-12-01T18:46:01.029Z,4.30
2022-12-01T18:50:47.279Z,4.30
2022-12-01T18:55:32.464Z,4.30
2022-12-01T19:00:18.401Z,4.30
2022-12-01T19:05:04.530Z,4.30
2022-12-01T19:09:52.072Z,4.30
2022-12-01T19:14:38.705Z,4.30
2022-12-01T19:19:23.392Z,4.30
2022-12-01T19:24:11.169Z,4.20
2022-12-01T19:28:56.309Z,4.20
2022-12-01T19:33:42.579Z,4.20
2022-12-01T19:38:28.036Z,4.20
2022-12-01T19:43:14.730Z,4.20
2022-12-01T19:47:59.621Z,4.20
2022-12-01T19:52:44.664Z,4.10
2022-12-01T19:57:31.124Z,4.10
2022-12-01T20:02:28.791Z,4.10
2022-12-01T20:07:17.002Z,4.10
2022-12-01T20:12:02.544Z,4.10
2022-12-01T20:16:50.353Z,4.10
2022-12-01T20:21:39.823Z,4.10
2022-12-01T20:26:30.397Z,4.10
2022-12-01T20:31:18.892Z,4.10
2022-12-01T20:36:04.979Z,4.10
2022-12-01T20:40:54.333Z,4.10
2022-12-01T20:45:40.556Z,4.10
2022-12-01T20:50:26.718Z,4.10
2022-12-01T20:55:12.856Z,4.10
2022-12-01T20:59:59.036Z,4.10
2022-12-01T21:04:43.944Z,4.10
2022-12-01T21:09:28.876Z,4.10
2022-12-01T21:14:18.453Z,4.10
2022-12-01T21:19:13.002Z,4.10
2022-12-01T21:24:17.796Z,4.10
2022-12-01T21:29:02.478Z,4.10
2022-12-01T21:33:48.296Z,4.10
2022-12-01T21:38:34.131Z,4.10
2022-12-01T21:43:22.652Z,4.10
2022-12-01T21:48:18.056Z,4.10
2022-12-01T21:53:02.506Z,4.10
2022-12-01T21:57:51.120Z,4.10
2022-12-01T22:02:47.174Z,4.10
2022-12-01T22:07:31.497Z,4.10
2022-12-01T22:12:25.041Z,4.10
2022-12-01T22:17:17.754Z,4.10
2022-12-01T22:22:21.818Z,4.10
2022-12-01T22:27:20.812Z,4.10
2022-12-01T22:32:45.727Z,4.10
2022-12-01T22:37:35.572Z,4.10
2022-12-01T22:42:23.541Z,4.10
2022-12-01T22:47:11.826Z,4.10
2022-12-01T22:52:02.287Z,4.10
2022-12-01T22:56:48.566Z,4.00
2022-12-01T23:01:36.091Z,4.00
2022-12-01T23:06:49.906Z,4.00
2022-12-01T23:11:35.387Z,4.00
2022-12-01T23:16:20.246Z,4.00
2022-12-01T23:21:04.918Z,4.00
2022-12-01T23:25:51.518Z,4.00
2022-12-01T23:30:40.374Z,4.00
2022-12-01T23:35:24.147Z,4.00
2022-12-01T23:40:18.192Z,4.10
2022-12-01T23:45:02.832Z,4.10
2022-12-01T23:49:49.364Z,4.10
2022-12-01T23:54:35.334Z,4.10
2022-12-01T23:59:21.022Z,4.20
